Overview Statistics Trail Chart Weather Telemetry Raw packets
 

This is the latest recevied weather packets stored in our database for station/object DL1EEM-L4. If no packets are shown the sender has not sent any weather packets the latest 10 day(s).

<< 7 8 9 10 11 12 >>
Time Temp. Humidity Pressure Rain* Wind** Luminosity Snow
1777725941 28.89° C 20% 1013.4 hPa - - - -
1777725041 27.78° C 20% 1013.8 hPa - - - -
1777724140 27.78° C 21% 1013.9 hPa - - - -
1777723250 26.67° C 21% 1014 hPa - - - -
1777722340 27.22° C 21% 1014.2 hPa - - - -
1777721440 27.78° C 20% 1014.3 hPa - - - -
1777720540 31.11° C 17% 1014.5 hPa - - - -
1777719640 29.44° C 18% 1014.6 hPa - - - -
1777718743 30.56° C 17% 1014.6 hPa - - - -
1777717842 29.44° C 17% 1014.8 hPa - - - -
1777716942 25.56° C 24% 1014.9 hPa - - - -
1777716042 21.67° C 30% 1015.2 hPa - - - -
1777715142 21.11° C 30% 1015.4 hPa - - - -
1777714242 20.56° C 31% 1015.5 hPa - - - -
1777713342 20° C 34% 1015.6 hPa - - - -
1777712442 19.44° C 35% 1015.7 hPa - - - -
1777711542 18.89° C 37% 1015.8 hPa - - - -
1777710642 18.33° C 38% 1015.9 hPa - - - -
1777709742 18.33° C 38% 1016 hPa - - - -
1777708840 18.33° C 38% 1016.2 hPa - - - -
1777707940 17.78° C 39% 1016.1 hPa - - - -
1777707040 17.22° C 41% 1016.3 hPa - - - -
1777706140 16.67° C 42% 1016.4 hPa - - - -
1777705240 16.11° C 42% 1016.3 hPa - - - -
1777704340 16.11° C 42% 1016.4 hPa - - - -

* Rain since midnight (hover to see other rain measurements)
** Current wind speed in m/s (hover to see current wind gust speed)